Weather observations for the past three days for
Claxton Evans County Airport
Metric (Imperial)
Date Time (edt) Wind (kph) Vis. (km) Weather Sky Cond. Temperature (ºC) Relative Humidity Wind Chill (°C) Heat Index (°C) Pressure Precipitation (cm)
Air Dwpt 6 hour altimeter (cm) sea level (mb) 1 hr 3 hr 6 hr
Max. Min.
04 06:55 SW 2 3.22 Fog/Mist CLR 6 6 100% 76.4 0.0
04 06:35 S 2 8.05 Fog/Mist CLR 6 6 100% 76.38 0.0
04 06:15 Calm 8.05 Fog/Mist CLR 7 7 100% 76.38 0.0
04 05:55 Calm 11.27 Fog/Mist CLR 7 7 100% 76.35 0.0
04 05:35 Calm 14.48 Fair CLR 7 7 100% 76.35 0.0
04 05:15 Calm 11.27 Fog/Mist CLR 7 7 100% 76.38 0.0
04 04:55 Calm 16.09 Fair CLR 8 8 100% 76.35 0.0
04 04:35 Calm 16.09 Fair CLR 8 8 100% 76.35 0.0
04 04:15 Calm 16.09 Fair CLR 7 7 100% 76.38 0.0
04 03:55 S 2 8.05 Fog/Mist CLR 8 8 100% 76.38 0.0
04 03:35 Calm 16.09 Fair CLR 8 8 100% 76.38 0.0
04 03:15 Vrbl 2 9.66 Fog/Mist CLR 8 8 100% 76.4 0.0
04 02:55 Calm 8.05 Fog/Mist CLR 9 9 100% 76.4 0.0
04 02:35 Calm 11.27 Fair CLR 9 9 100% 76.43 0.0
04 02:07 Calm 16.09 Fair CLR 9 9 100% 76.45 0.0
04 01:55 Calm 16.09 Fair CLR 9 9 19.1 9.4 100% 76.43 0.0
04 01:35 Calm 16.09 Fair CLR 10 10 100% 76.43 0.0
04 01:15 Calm 16.09 Fair CLR 10 10 100% 76.43 0.0
04 00:55 Calm 16.09 Fair CLR 10 10 100% 76.45 0.0
04 00:35 NW 2 16.09 Fair CLR 11 11 100% 76.43 0.0
04 00:15 Calm 16.09 Fair CLR 11 11 100% 76.43 0.0
03 23:55 Calm 16.09 Fair CLR 12 11 94% 76.43 0.0
03 23:35 Calm 16.09 Fair CLR 13 11 88% 76.43 0.0
03 23:15 Calm 16.09 Fair CLR 13 11 88% 76.43 0.0
03 22:55 Calm 16.09 Fair CLR 15 10 72% 76.43 0.0
03 22:35 Vrbl 6 16.09 Fair CLR 15 11 77% 76.4 0.0
03 22:15 Vrbl 6 16.09 Fair CLR 16 11 72% 76.4 0.0
03 21:55 Vrbl 6 16.09 Fair CLR 16 11 72% 76.38 0.0
03 21:35 SE 9 16.09 Fair CLR 16 10 68% 76.35 0.0
03 21:15 Vrbl 7 16.09 Fair CLR 15 10 72% 76.35 0.0
03 20:55 Calm 16.09 Fair CLR 14 11 82% 76.33 0.0
03 20:35 Calm 16.09 Fair CLR 15 11 77% 76.33 0.0
03 20:15 Calm 16.09 Fair CLR 16 11 72% 76.3 0.0
03 19:55 SE 2 16.09 Fair CLR 19 12 23.6 19.2 64% 76.28 0.0
03 19:35 W 4 16.09 Fair CLR 22 9 44% 76.28 0.0
03 19:15 NW 7 16.09 Fair CLR 23 7 36% 76.28 0.0
03 18:55 Vrbl 6 16.09 Fair CLR 23 6 33% 76.28 0.0
03 18:35 NW 11 16.09 A Few Clouds FEW070 23 6 33% 76.28 0.0
03 18:15 Vrbl 7 16.09 Fair CLR 23 6 33% 76.28 0.0
03 17:55 Vrbl 9 16.09 Fair CLR 23 6 33% 76.28 0.0
03 17:35 W 13 16.09 Fair CLR 23 5 31% 76.3 0.0
03 17:15 W 13 G 26 16.09 Fair CLR 23 5 31% 76.3 0.0
03 16:55 Vrbl 11 16.09 Fair CLR 23 5 31% 76.3 0.0
03 16:35 Vrbl 6 16.09 Fair CLR 23 4 29% 76.3 0.0
03 16:15 Vrbl 6 16.09 Fair CLR 23 3 27% 76.33 0.0
03 15:55 W 11 16.09 Fair CLR 23 4 29% 76.35 0.0
03 15:35 Vrbl 11 16.09 Fair CLR 23 4 29% 76.38 0.0
03 15:15 Vrbl 6 16.09 Fair CLR 23 5 31% 76.4 0.0
03 14:55 S 11 16.09 Fair CLR 23 6 33% 76.43 0.0
03 14:35 Vrbl 6 16.09 Fair CLR 22 5 33% 76.43 0.0
03 14:15 W 11 16.09 A Few Clouds FEW070 23 6 33% 76.45 0.0
03 13:55 Vrbl 11 16.09 Partly Cloudy SCT070 22 5 22.7 9.4 33% 76.48 0.0
03 13:35 NW 13 16.09 Fair CLR 22 6 36% 76.48 0.0
03 13:15 Vrbl 6 16.09 A Few Clouds FEW060 22 6 36% 76.5 0.0
03 12:55 NW 9 16.09 Mostly Cloudy BKN060 21 6 38% 76.53 0.0
03 12:35 Vrbl 4 16.09 A Few Clouds FEW060 21 4 33% 76.53 0.0
03 12:15 Vrbl 7 16.09 Fair CLR 20 7 43% 76.53 0.0
03 11:55 Vrbl 4 16.09 Fair CLR 20 9 49% 76.53 0.0
03 11:35 Vrbl 7 16.09 Fair CLR 20 8 46% 76.53 0.0
03 11:15 Vrbl 4 16.09 Fair CLR 19 10 56% 76.56 0.0
03 10:55 NW 7 16.09 Fair CLR 19 11 60% 76.56 0.0
03 10:35 Vrbl 4 16.09 Fair CLR 18 10 60% 76.56 0.0
03 10:15 NW 6 16.09 Fair CLR 18 11 64% 76.53 0.0
03 09:55 Vrbl 4 16.09 Fair CLR 16 12 77% 76.56 0.0
03 09:35 W 4 16.09 Fair CLR 14 13 94% 76.53 0.0
03 09:15 NW 4 16.09 A Few Clouds FEW001 13 13 100% 76.53 0.0
03 08:55 Calm 11.27 Fog/Mist BKN001 12 12 100% 76.53 0.0
03 08:35 Calm 0.40 Drizzle Fog OVC001 11 11 100% 76.5 0.0
03 08:15 Vrbl 4 1.21 Light Drizzle Fog/Mist OVC001 10 10 100% 76.5 0.0
03 07:55 SW 4 0.24 Fog OVC001 9 9 11.3 8.9 100% 76.48 0.0
03 07:35 Calm 0.24 Fog OVC001 9 9 100% 76.45 0.0
03 07:15 W 4 0.24 Fog OVC001 9 9 100% 76.45 0.0
03 06:35 SW 2 0.24 Fog OVC001 9 9 100% 76.4 0.0
03 05:55 Calm 0.24 Fog OVC001 10 10 100% 76.38 0.0
03 05:35 Vrbl 4 0.00 Mostly Cloudy BKN001 0 0 0% 76.35 0.0
03 05:15 Vrbl 4 0.24 Fog OVC001 10 10 100% 76.35 0.0
03 04:55 W 2 0.24 Fog OVC001 10 10 100% 76.35 0.0
03 04:35 SW 4 0.24 Fog OVC001 10 10 100% 76.35 0.0
03 04:15 S 2 0.24 Fog OVC001 10 10 100% 76.33 0.0
03 03:55 W 4 0.24 Fog OVC001 10 10 100% 76.33 0.0
03 03:35 SW 4 0.24 Fog OVC001 10 10 100% 76.3 0.0
03 03:15 NW 4 0.24 Fog OVC001 11 11 100% 76.3 0.0
03 02:55 SW 2 0.24 Fog OVC001 10 10 100% 76.28 0.0
03 02:35 Calm 0.24 Fog OVC001 10 10 100% 76.28 0.0
03 02:15 Calm 0.24 Fog OVC001 11 11 100% 76.28 0.0
03 01:55 W 2 0.80 Fog OVC001 11 11 16.3 10.7 100% 76.28 0.0
03 01:35 SW 2 1.21 Fog/Mist VV005 11 11 100% 76.25 0.0
03 01:15 W 4 8.05 Fog/Mist FEW001 FEW038 FEW055 12 12 100% 76.25 0.0
03 00:55 SW 2 6.44 Fog/Mist FEW038 SCT055 12 12 100% 76.25 0.0
03 00:35 Calm 16.09 Partly Cloudy SCT070 12 12 100% 76.25 0.0
03 00:15 Vrbl 2 9.66 Fog/Mist OVC070 12 12 100% 76.23 0.0
02 23:55 Vrbl 2 8.05 Fog/Mist FEW008 BKN070 BKN080 12 12 100% 76.23 0.0
02 23:35 N 7 4.02 Fog/Mist SCT008 12 12 100% 76.2 0.0
02 23:15 W 4 16.09 Fair CLR 12 12 100% 76.2 0.0
02 22:55 Calm 8.05 Fog/Mist CLR 13 13 100% 76.17 0.0
02 22:35 S 2 2.82 Fog/Mist CLR 13 13 100% 76.15 0.0
02 22:15 NE 2 16.09 A Few Clouds FEW009 14 14 100% 76.12 0.0
02 21:55 NE 7 16.09 A Few Clouds FEW009 FEW023 14 14 100% 76.12 0.0
02 21:35 NE 7 16.09 Mostly Cloudy SCT015 BKN025 14 14 100% 76.07 0.0
02 21:15 NE 9 16.09 Overcast BKN015 OVC026 15 15 100% 76.05 0.0
02 20:55 NE 6 16.09 Mostly Cloudy BKN026 15 15 100% 76.02 0.0
02 20:35 Calm 16.09 Mostly Cloudy SCT022 BKN027 15 15 100% 76.02 0.0
02 20:15 N 4 16.09 Mostly Cloudy BKN022 BKN028 16 15 94% 76 0.0
02 19:55 NE 6 16.09 Overcast FEW009 SCT016 OVC020 16 15 16.7 15.1 94% 75.97 0.0
02 19:35 E 6 16.09 Mostly Cloudy SCT013 BKN020 BKN070 17 15 88% 75.95 0.0
02 19:15 Vrbl 4 16.09 Mostly Cloudy FEW013 BKN070 BKN090 16 15 94% 75.92 0.0
02 18:55 Vrbl 7 16.09 Overcast FEW011 FEW050 OVC060 16 15 94% 75.92 0.0
02 18:35 E 9 16.09 Overcast SCT008 BKN045 OVC060 16 15 94% 75.92 0.0
02 18:15 E 6 16.09 Light Drizzle FEW008 SCT024 OVC044 16 15 94% 75.92 0.0
02 17:55 N 4 16.09 Light Drizzle FEW008 FEW012 OVC022 16 16 100% 75.9 0.0
02 17:35 N 13 12.87 Light Drizzle SCT011 SCT020 BKN031 16 15 94% 75.9 0.0
02 17:15 N 15 12.87 Light Drizzle BKN029 16 15 94% 75.87 0.0
02 16:55 Vrbl 11 11.27 Light Drizzle Fog/Mist FEW019 SCT029 15 15 100% 75.9 0.0
02 16:35 NW 11 G 26 4.83 Light Drizzle Fog/Mist BKN019 BKN032 BKN039 15 15 100% 75.9 0.0
02 16:15 N 11 8.05 Light Drizzle Fog/Mist SCT008 SCT019 SCT039 16 16 100% 75.87 0.0
02 15:55 N 13 9.66 Fog/Mist FEW008 SCT013 BKN020 16 15 94% 75.87 0.0
02 15:35 N 11 8.05 Light Drizzle Fog/Mist FEW010 BKN020 OVC027 16 15 94% 75.84 0.0
02 15:15 Vrbl 7 16.09 Overcast FEW009 BKN020 OVC027 16 16 100% 75.87 0.0
02 14:55 Vrbl 9 16.09 Light Drizzle FEW009 OVC017 16 16 100% 75.84 0.0 0.03
02 14:35 Vrbl 9 16.09 Light Rain SCT011 OVC020 16 16 100% 75.84 0.0
02 14:15 N 6 16.09 Overcast FEW010 OVC018 16 15 94% 75.87 0.0
02 13:55 N 7 14.48 Light Drizzle SCT006 BKN010 OVC016 16 15 16.3 14.8 94% 75.87 0.0 0.13
02 13:35 Vrbl 7 9.66 Light Rain Fog/Mist BKN006 OVC014 16 16 100% 75.84 0.0
02 13:15 N 11 4.83 Light Rain Fog/Mist SCT009 OVC014 16 15 94% 75.82 0.0
02 12:55 N 15 12.87 Light Drizzle BKN010 BKN013 OVC020 16 15 94% 75.84 0.0
02 12:35 N 13 16.09 Light Drizzle BKN008 BKN013 BKN020 16 15 94% 75.84 0.0
02 12:15 N 15 16.09 Light Drizzle BKN006 OVC013 16 16 100% 75.84 0.0
02 11:55 N 13 8.05 Light Rain Fog/Mist BKN006 OVC011 16 15 94% 75.9 0.0 0.13
02 11:35 Vrbl 9 6.44 Light Rain Fog/Mist BKN006 OVC011 15 15 100% 75.9 0.0
02 11:15 NE 11 12.87 Light Rain BKN006 OVC011 15 15 100% 75.84 0.0
02 10:55 N 9 8.05 Light Rain Fog/Mist BKN006 OVC011 15 15 100% 75.87 0.0 0.13
02 10:35 Vrbl 7 8.05 Light Rain Fog/Mist BKN006 OVC013 15 15 100% 75.9 0.0
02 10:15 N 15 9.66 Light Rain Fog/Mist OVC006 15 15 100% 75.87 0.0
02 09:55 N 9 4.83 Rain Fog/Mist BKN006 BKN011 OVC075 15 15 100% 75.84 0.0 0.51
02 09:35 Vrbl 6 4.83 Light Rain Fog/Mist SCT006 BKN015 BKN031 15 15 100% 75.9 0.0
02 09:15 NW 11 1.61 Heavy Rain Fog/Mist OVC004 15 15 100% 75.95 0.0
02 08:55 Vrbl 7 4.02 Light Rain Fog/Mist OVC004 15 15 100% 75.92 0.0 0.23
02 08:35 Vrbl 6 6.44 Light Rain Fog/Mist BKN004 OVC013 15 15 100% 75.84 0.0
02 08:15 Vrbl 6 4.02 Light Rain Fog/Mist FEW004 OVC013 15 15 100% 75.84 0.0
02 07:55 N 6 2.82 Rain Fog/Mist SCT004 BKN010 OVC016 15 15 17.9 15.1 100% 75.84 0.0 0.56
02 07:35 W 11 2.41 Rain Fog/Mist OVC006 15 15 100% 75.9 0.0
02 07:15 NW 9 3.22 Light Rain Fog/Mist OVC004 16 16 100% 75.82 0.0
02 06:55 NW 4 2.01 Rain Fog/Mist OVC004 16 16 100% 75.79 0.0 0.48
02 06:35 Vrbl 2 1.61 Rain Fog/Mist OVC004 16 16 100% 75.79 0.0
02 06:15 Vrbl 7 8.05 Light Rain Fog/Mist OVC004 16 16 100% 75.77 0.0
02 05:55 Vrbl 4 9.66 Light Rain Fog/Mist BKN004 BKN016 OVC075 16 16 100% 75.74 0.0 0.15
02 05:35 Vrbl 9 9.66 Light Drizzle Fog/Mist SCT037 BKN060 OVC090 16 16 100% 75.77 0.0
02 05:15 NE 7 3.22 Rain Fog/Mist BKN003 BKN050 OVC065 16 16 100% 75.79 0.0
02 04:55 NE 7 2.01 Light Rain Fog/Mist OVC005 16 16 100% 75.82 0.0 0.46
02 04:35 Vrbl 7 3.22 Light Rain Fog/Mist BKN003 BKN031 BKN075 16 16 100% 75.82 0.0
02 04:15 S 9 3.22 Rain Fog/Mist SCT003 BKN050 OVC075 16 16 100% 75.92 0.0
02 03:55 N 6 4.02 Rain Fog/Mist SCT060 SCT075 SCT100 16 16 100% 75.87 0.0 0.3
02 03:15 NW 15 4.83 Light Rain Fog/Mist SCT029 BKN050 BKN065 16 16 100% 75.92 0.0
02 02:55 NW 13 2.01 Rain Fog/Mist SCT004 BKN030 OVC090 17 17 100% 75.9 0.0 0.38
02 02:35 SW 9 6.44 Light Rain Fog/Mist SCT034 SCT048 BKN070 17 17 100% 75.97 0.0
02 02:15 N 11 3.22 Rain Fog/Mist SCT004 BKN034 OVC080 17 17 100% 75.9 0.0
02 01:55 N 9 4.83 Light Rain Fog/Mist SCT039 SCT055 BKN080 18 18 22 17.4 100% 75.92 0.0 0.2
02 01:35 NW 6 3.22 Light Rain Fog/Mist BKN005 BKN021 OVC040 18 18 100% 75.95 0.0
02 01:15 Vrbl 7 4.02 Light Rain Fog/Mist BKN005 BKN075 OVC095 18 18 100% 75.97 0.0
02 00:55 W 7 3.22 Light Rain Fog/Mist BKN003 BKN017 BKN095 18 18 100% 75.95 0.0 0.1
02 00:35 Vrbl 4 4.02 Light Rain Fog/Mist SCT004 SCT011 BKN060 18 18 100% 75.95 0.0
02 00:15 W 7 11.27 Light Rain Fog/Mist SCT060 BKN075 OVC090 19 19 100% 75.92 0.0
01 23:55 NW 6 12.87 Light Rain SCT060 BKN080 OVC110 19 18 94% 75.9 0.0 0.03
01 23:35 N 6 12.87 Mostly Cloudy SCT080 BKN100 BKN120 19 19 100% 75.87 0.0
01 23:15 N 7 11.27 Light Rain Fog/Mist SCT075 SCT095 19 19 100% 75.9 0.0
01 22:55 N 6 14.48 Light Rain SCT075 BKN095 BKN120 19 18 94% 75.92 0.0
01 22:35 N 6 12.87 Light Rain SCT060 SCT070 BKN110 19 18 94% 75.92 0.0
01 22:15 N 6 16.09 Light Rain BKN070 BKN085 BKN110 18 18 100% 75.9 0.0
01 21:55 Calm 16.09 Partly Cloudy FEW055 SCT095 SCT120 18 17 94% 75.92 0.0
01 21:35 Calm 16.09 Overcast SCT030 BKN075 OVC110 18 17 94% 75.92 0.0
01 21:15 NW 4 16.09 Overcast SCT028 SCT055 OVC110 18 16 88% 75.95 0.0
01 20:55 W 7 16.09 Light Rain SCT030 BKN075 OVC120 20 15 73% 75.95 0.0
01 20:35 W 7 16.09 Overcast SCT032 BKN075 OVC120 21 12 57% 75.97 0.0
01 20:15 W 9 16.09 Mostly Cloudy BKN120 21 11 53% 75.9 0.0
01 19:55 Vrbl 6 16.09 Fair CLR 22 11 24.8 21.9 50% 75.84 0.0
01 19:35 W 9 16.09 Fair CLR 22 11 50% 75.84 0.0
01 19:15 W 9 16.09 Fair CLR 22 12 53% 75.84 0.0
01 18:55 Vrbl 7 16.09 Fair CLR 23 12 50% 75.82 0.0
01 18:35 W 9 16.09 A Few Clouds FEW110 23 12 50% 75.79 0.0
01 18:15 W 9 16.09 Light Rain FEW070 SCT085 BKN110 23 12 50% 75.82 0.0
01 17:55 W 13 16.09 Overcast BKN070 OVC085 23 11 47% 75.87 0.0
01 17:35 W 15 16.09 Overcast OVC070 23 11 47% 75.9 0.0
01 17:15 W 9 16.09 Overcast OVC080 24 11 44% 25 75.87 0.0
01 16:55 Vrbl 9 16.09 Overcast OVC080 24 11 44% 25 75.84 0.0
01 16:35 W 13 16.09 Overcast OVC080 24 11 44% 25 75.84 0.0
01 16:15 Vrbl 7 16.09 Overcast OVC080 24 11 44% 25 75.84 0.0
01 15:55 Vrbl 4 16.09 Overcast OVC080 24 11 44% 25 75.84 0.0
01 15:35 Vrbl 9 16.09 Mostly Cloudy FEW060 BKN090 24 11 44% 25 75.87 0.0
01 15:15 Vrbl 6 16.09 Mostly Cloudy SCT070 SCT080 BKN090 24 11 44% 25 75.9 0.0
01 14:55 Vrbl 6 16.09 Light Rain FEW060 SCT080 BKN090 24 12 47% 25 75.92 0.0
01 14:35 Vrbl 7 16.09 Partly Cloudy SCT090 24 12 47% 25 75.92 0.0
01 14:15 W 13 16.09 Partly Cloudy FEW060 SCT070 SCT100 25 12 44% 26 75.92 0.0
01 13:55 W 13 16.09 Mostly Cloudy BKN070 25 11 26.3 17.6 42% 26 75.92 0.0
01 13:35 Vrbl 9 16.09 Mostly Cloudy FEW065 BKN080 BKN090 25 11 42% 26 75.92 0.0
01 13:15 Vrbl 4 16.09 Mostly Cloudy FEW080 BKN100 25 12 44% 26 75.92 0.0
01 12:55 Vrbl 9 16.09 Mostly Cloudy BKN080 BKN100 25 13 47% 26 75.92 0.0
01 12:35 SW 13 16.09 Mostly Cloudy BKN080 26 13 45% 26 75.92 0.0
01 12:15 SW 11 16.09 Partly Cloudy SCT090 25 14 51% 26 75.95 0.0
01 11:55 Vrbl 11 16.09 Partly Cloudy SCT090 SCT110 24 15 57% 25 75.97 0.0
01 11:35 Vrbl 6 16.09 Mostly Cloudy BKN090 24 16 61% 25 75.97 0.0
01 11:15 SW 6 16.09 Overcast OVC090 22 17 73% 75.97 0.0
01 10:55 W 7 16.09 Overcast OVC090 21 16 73% 76 0.0
01 10:35 Vrbl 6 16.09 Overcast OVC090 21 16 73% 75.97 0.0
01 10:15 Calm 16.09 Mostly Cloudy BKN100 20 16 78% 75.95 0.0
01 09:55 W 4 16.09 Mostly Cloudy BKN100 20 15 73% 75.97 0.0
01 09:35 W 6 16.09 Overcast FEW012 OVC100 20 15 73% 75.97 0.0
01 09:15 Vrbl 2 16.09 Overcast SCT012 OVC110 19 15 78% 75.97 0.0
01 08:55 Vrbl 2 16.09 Overcast FEW011 OVC110 19 14 73% 75.95 0.0
01 08:35 N 4 16.09 Overcast FEW011 OVC120 19 14 73% 75.92 0.0
01 08:15 Vrbl 6 16.09 Overcast SCT009 OVC120 18 14 78% 75.95 0.0
01 07:55 Vrbl 6 16.09 Mostly Cloudy BKN009 BKN120 18 15 17.6 15.4 83% 75.92 0.0
01 07:35 W 6 16.09 A Few Clouds FEW120 18 15 83% 75.9 0.0
Date Time (edt) Wind (kph) Vis. (km) Weather Sky Cond. Air Dwpt Max. Min. Relative Humidity Wind Chill (°C) Heat Index (°C) altimeter (cm) sea level (mb) 1 hr 3 hr 6 hr
6 hour
Temperature (ºC) Pressure Precipitation (cm)